Arrow Post — CG2882 — position and weather

sailwx.info

Track history (hours):
 
Tides and Currents Weather Stations Pressure Air Temp Water Temp Dewpoint Dewpoint Depression Visibility Wind Speed Wind Dir Waves Ship Positions

Arrow Post

Last reported at 2014-Nov-01 02:20 UTC. Time now 2014-Nov-01 03:17 UTC.
Position N 49°30' W 123°45'.

Length 29 m; draft 3.5 m.

Type: SAR. MMSI: 316001090.

Date/timePositionNaut miles runAvg speedWind from/ knotsBaromVisibWave heightAir tempDewpointWater temp
2014-Nov-01 02:20N 49°30' W 123°45'0 0.1
2014-Nov-01 01:32N 49°30' W 123°45'3 2.7
2014-Nov-01 00:31N 49°32' W 123°47'16 7.2
2014-Oct-31 22:19N 49°47' W 123°57'0 0.4
2014-Oct-31 21:32N 49°47' W 123°57'0 0.0
2014-Oct-31 20:10N 49°47' W 123°57'0 0.0
2014-Oct-31 19:08N 49°47' W 123°57'0 0.0
2014-Oct-31 18:29N 49°47' W 123°57'3 1.6
2014-Oct-31 16:30N 49°45' W 124°01'7 0.4
2014-Oct-30 23:23N 49°38' W 124°02'2 2.3
2014-Oct-30 22:32N 49°37' W 124°05'1111.2
2014-Oct-30 21:31N 49°26' W 124°01'16 1.0
2014-Oct-30 06:04N 49°10' W 123°56'0 0.0
2014-Oct-30 05:28N 49°10' W 123°56'0 0.0
2014-Oct-30 04:28N 49°10' W 123°56'0 0.0
2014-Oct-30 03:16N 49°10' W 123°56'0 0.0
2014-Oct-28 22:25N 49°10' W 123°56'0 0.0
2014-Oct-28 21:31N 49°10' W 123°56'0 0.0
2014-Oct-28 20:31N 49°10' W 123°56'0 0.0
2014-Oct-28 19:31N 49°10' W 123°56'0 0.0
2014-Oct-28 18:31N 49°10' W 123°56'0 0.0
2014-Oct-28 17:31N 49°10' W 123°56'0 0.0
2014-Oct-28 16:31N 49°10' W 123°56'0 0.0
2014-Oct-28 15:31N 49°10' W 123°56'0 0.0
2014-Oct-28 14:31N 49°10' W 123°56'0 0.0
2014-Oct-28 13:31N 49°10' W 123°56'0 0.0
2014-Oct-28 12:31N 49°10' W 123°56'0 0.0
2014-Oct-28 11:31N 49°10' W 123°56'0 0.0
2014-Oct-28 10:31N 49°10' W 123°56'0 0.0
2014-Oct-28 09:31N 49°10' W 123°56'0 0.0
2014-Oct-28 08:31N 49°10' W 123°56'0 0.0
2014-Oct-28 07:31N 49°10' W 123°56'0 0.0
2014-Oct-28 06:31N 49°10' W 123°56'0 0.0
2014-Oct-28 05:31N 49°10' W 123°56'0 0.0
2014-Oct-28 04:31N 49°10' W 123°56'0 0.0
2014-Oct-28 03:31N 49°10' W 123°56'0 0.0
2014-Oct-28 02:31N 49°10' W 123°56'0 0.0
2014-Oct-28 01:31N 49°10' W 123°56'0 0.0
2014-Oct-28 00:31N 49°10' W 123°56'0 0.0
2014-Oct-27 23:31N 49°10' W 123°56'0 0.0
2014-Oct-27 22:31N 49°10' W 123°56'0 0.0
2014-Oct-27 21:31N 49°10' W 123°56'0 0.0
2014-Oct-27 20:31N 49°10' W 123°56'0 0.0
2014-Oct-27 19:31N 49°10' W 123°56'0 0.0
2014-Oct-27 18:31N 49°10' W 123°56'0 0.0
2014-Oct-27 17:31N 49°10' W 123°56'0 0.0
2014-Oct-27 16:31N 49°10' W 123°56'0 0.0
2014-Oct-27 15:31N 49°10' W 123°56'0 0.0
2014-Oct-27 14:31N 49°10' W 123°56'0 0.0
2014-Oct-27 13:31N 49°10' W 123°56'0 0.0
2014-Oct-27 12:31N 49°10' W 123°56'0 0.0
2014-Oct-27 11:31N 49°10' W 123°56'0 0.0
2014-Oct-27 10:31N 49°10' W 123°56'0 0.0
2014-Oct-27 09:31N 49°10' W 123°56'0 0.0
2014-Oct-27 08:31N 49°10' W 123°56'0 0.0
2014-Oct-27 07:31N 49°10' W 123°56'0 0.0
2014-Oct-27 06:31N 49°10' W 123°56'0 0.0
2014-Oct-27 05:31N 49°10' W 123°56'0 0.0
2014-Oct-27 04:31N 49°10' W 123°56'0 0.0
2014-Oct-27 03:31N 49°10' W 123°56'0 0.0
2014-Oct-27 02:31N 49°10' W 123°56'0 0.0
2014-Oct-27 01:31N 49°10' W 123°56'0 0.0
2014-Oct-27 00:31N 49°10' W 123°56'5 5.3
2014-Oct-26 23:33N 49°15' W 123°59'7 7.0
2014-Oct-26 22:33N 49°18' W 124°09'10 9.9
2014-Oct-26 21:34N 49°13' W 123°56'7 6.7
2014-Oct-26 20:34N 49°12' W 123°46'9 9.2
2014-Oct-26 19:33N 49°06' W 123°34'10 9.6
2014-Oct-26 18:32N 48°59' W 123°24'8 8.5
2014-Oct-26 17:33N 48°52' W 123°19'7 7.1
2014-Oct-26 16:33N 48°45' W 123°23'6 1.9
2014-Oct-26 13:12N 48°39' W 123°27'0 0.0
2014-Oct-26 06:30N 48°39' W 123°27'0 0.0
2014-Oct-25 23:24N 48°39' W 123°27'1 1.7
2014-Oct-25 22:33N 48°40' W 123°29'9 9.4
2014-Oct-25 21:33N 48°47' W 123°21'8 7.9
2014-Oct-25 20:33N 48°55' W 123°20'1110.6
2014-Oct-25 19:33N 49°03' W 123°30'1111.1
2014-Oct-25 18:33N 49°11' W 123°42'1110.9
2014-Oct-25 17:33N 49°16' W 123°57'2 2.2
2014-Oct-25 16:33N 49°15' W 124°00'6 6.3
2014-Oct-25 15:33N 49°10' W 123°55'0 0.4
2014-Oct-25 14:33N 49°10' W 123°56'0 0.0
2014-Oct-25 13:33N 49°10' W 123°56'0 0.0
2014-Oct-25 12:33N 49°10' W 123°56'0 0.0
2014-Oct-25 11:33N 49°10' W 123°56'0 0.0
2014-Oct-25 10:31N 49°10' W 123°56'0 0.0
2014-Oct-25 09:33N 49°10' W 123°56'0 0.0
2014-Oct-25 08:33N 49°10' W 123°56'0 0.0
2014-Oct-25 07:33N 49°10' W 123°56'0 0.0
2014-Oct-25 06:30N 49°10' W 123°56'0 0.0
2014-Oct-25 05:33N 49°10' W 123°56'0 0.0
2014-Oct-25 04:24N 49°10' W 123°56'0 0.0
2014-Oct-25 03:31N 49°10' W 123°56'0 0.0
2014-Oct-25 02:33N 49°10' W 123°56'0 0.0
2014-Oct-25 01:33N 49°10' W 123°56'0 0.0
2014-Oct-25 00:33N 49°10' W 123°56'1 1.5
2014-Oct-24 23:33N 49°11' W 123°54'1010.3
2014-Oct-24 22:33N 49°18' W 124°06'1010.4
2014-Oct-24 21:33N 49°22' W 124°21'9 8.7
2014-Oct-24 20:32N 49°25' W 124°34'6 5.7
2014-Oct-24 19:33N 49°28' W 124°41'9 8.5
2014-Oct-24 18:31N 49°36' W 124°47'6 5.7
2014-Oct-24 17:33N 49°40' W 124°52'8 8.1
2014-Oct-24 16:32N 49°36' W 124°42'1010.0
2014-Oct-24 15:33N 49°31' W 124°28'5 5.1
2014-Oct-24 14:33N 49°29' W 124°21'0 0.0
2014-Oct-24 13:33N 49°29' W 124°21'0 0.0
2014-Oct-24 12:34N 49°29' W 124°21'0 0.0
2014-Oct-24 11:33N 49°29' W 124°21'0 0.0
2014-Oct-24 10:33N 49°29' W 124°21'0 0.0
2014-Oct-24 09:33N 49°29' W 124°21'0 0.0
2014-Oct-24 08:33N 49°29' W 124°21'0 0.0
2014-Oct-24 07:33N 49°29' W 124°21'0 0.0
2014-Oct-24 06:34N 49°29' W 124°21'0 0.0
2014-Oct-24 05:33N 49°29' W 124°21'0 0.0
2014-Oct-24 04:33N 49°29' W 124°21'0 0.0
2014-Oct-24 03:33N 49°29' W 124°21'0 0.0
2014-Oct-24 02:34N 49°29' W 124°21'0 0.0
2014-Oct-24 01:33N 49°29' W 124°21'0 0.0
2014-Oct-24 00:33N 49°29' W 124°21'0 0.0
2014-Oct-23 23:33N 49°29' W 124°21'2 2.2
2014-Oct-23 22:33N 49°30' W 124°24'8 8.4
2014-Oct-23 21:33N 49°31' W 124°11'5 5.4
2014-Oct-23 20:33N 49°26' W 124°15'1010.0
2014-Oct-23 19:33N 49°27' W 124°31'14 4.7
2014-Oct-23 16:29N 49°33' W 124°51'8 8.2
2014-Oct-23 15:30N 49°29' W 124°40'3 2.5
2014-Oct-23 14:12N 49°31' W 124°43'0 0.0
2014-Oct-23 13:20N 49°31' W 124°43'0 0.0
2014-Oct-23 10:21N 49°31' W 124°43'0 0.0
2014-Oct-23 09:20N 49°31' W 124°43'0 0.0
2014-Oct-23 08:08N 49°31' W 124°43'0 0.0
2014-Oct-23 07:32N 49°31' W 124°43'0 0.0
2014-Oct-23 04:21N 49°31' W 124°43'0 0.0
2014-Oct-23 03:30N 49°31' W 124°43'0 0.0
2014-Oct-23 02:31N 49°31' W 124°43'0 0.0
2014-Oct-23 01:23N 49°31' W 124°43'0 0.0
2014-Oct-23 00:06N 49°31' W 124°43'3 4.6
2014-Oct-22 23:33N 49°34' W 124°44'10 9.8
2014-Oct-22 22:33N 49°43' W 124°49'9 9.1
2014-Oct-22 21:31N 49°50' W 124°59'1110.0
2014-Oct-22 20:28N 49°58' W 125°10'  
Track history (hours):
 
Tides and Currents Weather Stations Pressure Air Temp Water Temp Dewpoint Dewpoint Depression Visibility Wind Speed Wind Dir Waves Ship Positions

Arrow Post

Last reported at 2014-Nov-01 02:20 UTC. Time now 2014-Nov-01 03:17 UTC.
Position N 49°30' W 123°45'.

Length 29 m; draft 3.5 m.

Type: SAR. MMSI: 316001090.

Date/timePositionNaut miles runAvg speedWind from/ knotsBaromVisibWave heightAir tempDewpointWater temp
2014-Nov-01 02:20N 49°30' W 123°45'0 0.1
2014-Nov-01 01:32N 49°30' W 123°45'3 2.7
2014-Nov-01 00:31N 49°32' W 123°47'16 7.2
2014-Oct-31 22:19N 49°47' W 123°57'0 0.4
2014-Oct-31 21:32N 49°47' W 123°57'0 0.0
2014-Oct-31 20:10N 49°47' W 123°57'0 0.0
2014-Oct-31 19:08N 49°47' W 123°57'0 0.0
2014-Oct-31 18:29N 49°47' W 123°57'3 1.6
2014-Oct-31 16:30N 49°45' W 124°01'7 0.4
2014-Oct-30 23:23N 49°38' W 124°02'2 2.3
2014-Oct-30 22:32N 49°37' W 124°05'1111.2
2014-Oct-30 21:31N 49°26' W 124°01'16 1.0
2014-Oct-30 06:04N 49°10' W 123°56'0 0.0
2014-Oct-30 05:28N 49°10' W 123°56'0 0.0
2014-Oct-30 04:28N 49°10' W 123°56'0 0.0
2014-Oct-30 03:16N 49°10' W 123°56'0 0.0
2014-Oct-28 22:25N 49°10' W 123°56'0 0.0
2014-Oct-28 21:31N 49°10' W 123°56'0 0.0
2014-Oct-28 20:31N 49°10' W 123°56'0 0.0
2014-Oct-28 19:31N 49°10' W 123°56'0 0.0
2014-Oct-28 18:31N 49°10' W 123°56'0 0.0
2014-Oct-28 17:31N 49°10' W 123°56'0 0.0
2014-Oct-28 16:31N 49°10' W 123°56'0 0.0
2014-Oct-28 15:31N 49°10' W 123°56'0 0.0
2014-Oct-28 14:31N 49°10' W 123°56'0 0.0
2014-Oct-28 13:31N 49°10' W 123°56'0 0.0
2014-Oct-28 12:31N 49°10' W 123°56'0 0.0
2014-Oct-28 11:31N 49°10' W 123°56'0 0.0
2014-Oct-28 10:31N 49°10' W 123°56'0 0.0
2014-Oct-28 09:31N 49°10' W 123°56'0 0.0
2014-Oct-28 08:31N 49°10' W 123°56'0 0.0
2014-Oct-28 07:31N 49°10' W 123°56'0 0.0
2014-Oct-28 06:31N 49°10' W 123°56'0 0.0
2014-Oct-28 05:31N 49°10' W 123°56'0 0.0
2014-Oct-28 04:31N 49°10' W 123°56'0 0.0
2014-Oct-28 03:31N 49°10' W 123°56'0 0.0
2014-Oct-28 02:31N 49°10' W 123°56'0 0.0
2014-Oct-28 01:31N 49°10' W 123°56'0 0.0
2014-Oct-28 00:31N 49°10' W 123°56'0 0.0
2014-Oct-27 23:31N 49°10' W 123°56'0 0.0
2014-Oct-27 22:31N 49°10' W 123°56'0 0.0
2014-Oct-27 21:31N 49°10' W 123°56'0 0.0
2014-Oct-27 20:31N 49°10' W 123°56'0 0.0
2014-Oct-27 19:31N 49°10' W 123°56'0 0.0
2014-Oct-27 18:31N 49°10' W 123°56'0 0.0
2014-Oct-27 17:31N 49°10' W 123°56'0 0.0
2014-Oct-27 16:31N 49°10' W 123°56'0 0.0
2014-Oct-27 15:31N 49°10' W 123°56'0 0.0
2014-Oct-27 14:31N 49°10' W 123°56'0 0.0
2014-Oct-27 13:31N 49°10' W 123°56'0 0.0
2014-Oct-27 12:31N 49°10' W 123°56'0 0.0
2014-Oct-27 11:31N 49°10' W 123°56'0 0.0
2014-Oct-27 10:31N 49°10' W 123°56'0 0.0
2014-Oct-27 09:31N 49°10' W 123°56'0 0.0
2014-Oct-27 08:31N 49°10' W 123°56'0 0.0
2014-Oct-27 07:31N 49°10' W 123°56'0 0.0
2014-Oct-27 06:31N 49°10' W 123°56'0 0.0
2014-Oct-27 05:31N 49°10' W 123°56'0 0.0
2014-Oct-27 04:31N 49°10' W 123°56'0 0.0
2014-Oct-27 03:31N 49°10' W 123°56'0 0.0
2014-Oct-27 02:31N 49°10' W 123°56'0 0.0
2014-Oct-27 01:31N 49°10' W 123°56'0 0.0
2014-Oct-27 00:31N 49°10' W 123°56'5 5.3
2014-Oct-26 23:33N 49°15' W 123°59'7 7.0
2014-Oct-26 22:33N 49°18' W 124°09'10 9.9
2014-Oct-26 21:34N 49°13' W 123°56'7 6.7
2014-Oct-26 20:34N 49°12' W 123°46'9 9.2
2014-Oct-26 19:33N 49°06' W 123°34'10 9.6
2014-Oct-26 18:32N 48°59' W 123°24'8 8.5
2014-Oct-26 17:33N 48°52' W 123°19'7 7.1
2014-Oct-26 16:33N 48°45' W 123°23'6 1.9
2014-Oct-26 13:12N 48°39' W 123°27'0 0.0
2014-Oct-26 06:30N 48°39' W 123°27'0 0.0
2014-Oct-25 23:24N 48°39' W 123°27'1 1.7
2014-Oct-25 22:33N 48°40' W 123°29'9 9.4
2014-Oct-25 21:33N 48°47' W 123°21'8 7.9
2014-Oct-25 20:33N 48°55' W 123°20'1110.6
2014-Oct-25 19:33N 49°03' W 123°30'1111.1
2014-Oct-25 18:33N 49°11' W 123°42'1110.9
2014-Oct-25 17:33N 49°16' W 123°57'2 2.2
2014-Oct-25 16:33N 49°15' W 124°00'6 6.3
2014-Oct-25 15:33N 49°10' W 123°55'0 0.4
2014-Oct-25 14:33N 49°10' W 123°56'0 0.0
2014-Oct-25 13:33N 49°10' W 123°56'0 0.0
2014-Oct-25 12:33N 49°10' W 123°56'0 0.0
2014-Oct-25 11:33N 49°10' W 123°56'0 0.0
2014-Oct-25 10:31N 49°10' W 123°56'0 0.0
2014-Oct-25 09:33N 49°10' W 123°56'0 0.0
2014-Oct-25 08:33N 49°10' W 123°56'0 0.0
2014-Oct-25 07:33N 49°10' W 123°56'0 0.0
2014-Oct-25 06:30N 49°10' W 123°56'0 0.0
2014-Oct-25 05:33N 49°10' W 123°56'0 0.0
2014-Oct-25 04:24N 49°10' W 123°56'0 0.0
2014-Oct-25 03:31N 49°10' W 123°56'0 0.0
2014-Oct-25 02:33N 49°10' W 123°56'0 0.0
2014-Oct-25 01:33N 49°10' W 123°56'0 0.0
2014-Oct-25 00:33N 49°10' W 123°56'1 1.5
2014-Oct-24 23:33N 49°11' W 123°54'1010.3
2014-Oct-24 22:33N 49°18' W 124°06'1010.4
2014-Oct-24 21:33N 49°22' W 124°21'9 8.7
2014-Oct-24 20:32N 49°25' W 124°34'6 5.7
2014-Oct-24 19:33N 49°28' W 124°41'9 8.5
2014-Oct-24 18:31N 49°36' W 124°47'6 5.7
2014-Oct-24 17:33N 49°40' W 124°52'8 8.1
2014-Oct-24 16:32N 49°36' W 124°42'1010.0
2014-Oct-24 15:33N 49°31' W 124°28'5 5.1
2014-Oct-24 14:33N 49°29' W 124°21'0 0.0
2014-Oct-24 13:33N 49°29' W 124°21'0 0.0
2014-Oct-24 12:34N 49°29' W 124°21'0 0.0
2014-Oct-24 11:33N 49°29' W 124°21'0 0.0
2014-Oct-24 10:33N 49°29' W 124°21'0 0.0
2014-Oct-24 09:33N 49°29' W 124°21'0 0.0
2014-Oct-24 08:33N 49°29' W 124°21'0 0.0
2014-Oct-24 07:33N 49°29' W 124°21'0 0.0
2014-Oct-24 06:34N 49°29' W 124°21'0 0.0
2014-Oct-24 05:33N 49°29' W 124°21'0 0.0
2014-Oct-24 04:33N 49°29' W 124°21'0 0.0
2014-Oct-24 03:33N 49°29' W 124°21'0 0.0
2014-Oct-24 02:34N 49°29' W 124°21'0 0.0
2014-Oct-24 01:33N 49°29' W 124°21'0 0.0
2014-Oct-24 00:33N 49°29' W 124°21'0 0.0
2014-Oct-23 23:33N 49°29' W 124°21'2 2.2
2014-Oct-23 22:33N 49°30' W 124°24'8 8.4
2014-Oct-23 21:33N 49°31' W 124°11'5 5.4
2014-Oct-23 20:33N 49°26' W 124°15'1010.0
2014-Oct-23 19:33N 49°27' W 124°31'14 4.7
2014-Oct-23 16:29N 49°33' W 124°51'8 8.2
2014-Oct-23 15:30N 49°29' W 124°40'3 2.5
2014-Oct-23 14:12N 49°31' W 124°43'0 0.0
2014-Oct-23 13:20N 49°31' W 124°43'0 0.0
2014-Oct-23 10:21N 49°31' W 124°43'0 0.0
2014-Oct-23 09:20N 49°31' W 124°43'0 0.0
2014-Oct-23 08:08N 49°31' W 124°43'0 0.0
2014-Oct-23 07:32N 49°31' W 124°43'0 0.0
2014-Oct-23 04:21N 49°31' W 124°43'0 0.0
2014-Oct-23 03:30N 49°31' W 124°43'0 0.0
2014-Oct-23 02:31N 49°31' W 124°43'0 0.0
2014-Oct-23 01:23N 49°31' W 124°43'0 0.0
2014-Oct-23 00:06N 49°31' W 124°43'3 4.6
2014-Oct-22 23:33N 49°34' W 124°44'10 9.8
2014-Oct-22 22:33N 49°43' W 124°49'9 9.1
2014-Oct-22 21:31N 49°50' W 124°59'1110.0
2014-Oct-22 20:28N 49°58' W 125°10'  

Dump ship's entire track history